createdAt,value
2022-09-15T00:02:23.198Z,94771.00
2022-09-15T00:04:51.968Z,94765.34
2022-09-15T00:07:21.105Z,94768.44
2022-09-15T00:09:49.826Z,94767.31
2022-09-15T00:12:18.603Z,94773.22
2022-09-15T00:14:47.387Z,94762.22
2022-09-15T00:17:16.071Z,94753.63
2022-09-15T00:19:46.297Z,94759.78
2022-09-15T00:22:15.061Z,94760.59
2022-09-15T00:24:43.738Z,94768.53
2022-09-15T00:27:12.572Z,94762.47
2022-09-15T00:29:41.325Z,94749.91
2022-09-15T00:32:10.609Z,94767.06
2022-09-15T00:34:39.442Z,94757.22
2022-09-15T00:37:10.026Z,94758.50
2022-09-15T00:39:38.951Z,94763.78
2022-09-15T00:42:07.976Z,94759.72
2022-09-15T00:44:58.764Z,94760.75
2022-09-15T00:47:30.646Z,94756.81
2022-09-15T00:50:06.054Z,94759.25
2022-09-15T00:52:41.862Z,94753.38
2022-09-15T00:55:15.328Z,94754.78
2022-09-15T00:57:47.593Z,94751.03
2022-09-15T01:00:25.296Z,94750.50
2022-09-15T01:02:54.404Z,94752.69
2022-09-15T01:05:25.136Z,94749.84
2022-09-15T01:07:58.921Z,94750.91
2022-09-15T01:10:30.076Z,94747.75
2022-09-15T01:13:00.457Z,94754.75
2022-09-15T01:15:39.009Z,94749.38
2022-09-15T01:18:16.592Z,94743.69
2022-09-15T01:21:00.082Z,94747.03
2022-09-15T01:23:46.435Z,94762.06
2022-09-15T01:26:45.157Z,94760.03
2022-09-15T01:29:56.462Z,94750.69
2022-09-15T01:32:48.749Z,94745.91
2022-09-15T01:35:28.558Z,94741.84
2022-09-15T01:38:02.386Z,94747.72
2022-09-15T01:40:35.174Z,94748.28
2022-09-15T01:43:06.945Z,94739.47
2022-09-15T01:45:40.336Z,94739.47
2022-09-15T01:48:10.428Z,94736.28
2022-09-15T01:50:44.178Z,94730.13
2022-09-15T01:53:19.221Z,94732.13
2022-09-15T01:55:54.267Z,94733.44
2022-09-15T01:58:23.379Z,94736.22
2022-09-15T02:01:00.323Z,94744.50
2022-09-15T02:03:35.265Z,94737.31
2022-09-15T02:06:10.321Z,94735.97
2022-09-15T02:08:45.363Z,94744.84
2022-09-15T02:11:18.303Z,94736.03
2022-09-15T02:13:55.511Z,94732.66
2022-09-15T02:16:28.781Z,94729.72
2022-09-15T02:19:10.989Z,94743.41
2022-09-15T02:21:51.212Z,94730.63
2022-09-15T02:24:24.505Z,94732.25
2022-09-15T02:26:55.198Z,94737.28
2022-09-15T02:29:27.628Z,94731.69
2022-09-15T02:32:06.867Z,94742.63
2022-09-15T02:34:39.594Z,94725.25
2022-09-15T02:37:09.761Z,94732.16
2022-09-15T02:39:42.466Z,94733.75
2022-09-15T02:42:11.788Z,94726.84
2022-09-15T02:44:41.553Z,94723.13
2022-09-15T02:47:11.965Z,94720.16
2022-09-15T02:49:40.710Z,94722.53
2022-09-15T02:52:09.447Z,94719.06
2022-09-15T02:54:38.267Z,94720.41
2022-09-15T02:57:07.200Z,94721.44
2022-09-15T02:59:50.146Z,94730.53
2022-09-15T03:02:21.449Z,94729.78
2022-09-15T03:04:50.798Z,94729.78
2022-09-15T03:07:20.716Z,94737.53
2022-09-15T03:09:50.079Z,94734.56
2022-09-15T03:12:18.941Z,94740.47
2022-09-15T03:14:48.186Z,94749.56
2022-09-15T03:17:16.844Z,94744.50
2022-09-15T03:19:47.116Z,94755.72
2022-09-15T03:22:15.913Z,94753.59
2022-09-15T03:24:44.603Z,94756.78
2022-09-15T03:27:13.511Z,94739.22
2022-09-15T03:29:42.394Z,94742.69
2022-09-15T03:32:11.125Z,94735.25
2022-09-15T03:34:39.814Z,94741.88
2022-09-15T03:37:10.009Z,94746.47
2022-09-15T03:39:39.092Z,94739.00
2022-09-15T03:42:07.947Z,94740.66
2022-09-15T03:44:36.965Z,94737.47
2022-09-15T03:47:05.986Z,94747.91
2022-09-15T03:49:34.920Z,94746.53
2022-09-15T03:52:03.919Z,94737.47
2022-09-15T03:54:35.609Z,94746.03
2022-09-15T03:57:04.845Z,94740.44
2022-09-15T03:59:33.571Z,94739.38
2022-09-15T04:02:02.555Z,94741.00
2022-09-15T04:04:32.267Z,94729.53
2022-09-15T04:07:00.967Z,94727.66
2022-09-15T04:09:30.765Z,94741.56
2022-09-15T04:12:00.952Z,94745.06
2022-09-15T04:14:29.767Z,94737.84
2022-09-15T04:16:58.465Z,94745.84
2022-09-15T04:19:27.346Z,94742.38
2022-09-15T04:21:56.117Z,94745.59
2022-09-15T04:24:25.063Z,94740.25
2022-09-15T04:26:53.986Z,94741.56
2022-09-15T04:29:24.907Z,94745.88
2022-09-15T04:31:53.994Z,94746.13
2022-09-15T04:34:22.709Z,94746.13
2022-09-15T04:36:51.485Z,94741.03
2022-09-15T04:39:20.709Z,94732.25
2022-09-15T04:41:49.669Z,94735.72
2022-09-15T04:44:18.714Z,94736.50
2022-09-15T04:46:49.020Z,94734.34
2022-09-15T04:49:18.194Z,94741.03
2022-09-15T04:51:47.081Z,94735.66
2022-09-15T04:54:15.717Z,94730.50
2022-09-15T04:56:45.045Z,94735.53
2022-09-15T04:59:15.900Z,94742.91
2022-09-15T05:01:44.896Z,94730.53
2022-09-15T05:04:15.298Z,94735.53
2022-09-15T05:06:44.321Z,94728.19
2022-09-15T05:09:15.155Z,94732.94
2022-09-15T05:11:43.987Z,94744.09
2022-09-15T05:14:13.269Z,94737.38
2022-09-15T05:16:42.056Z,94726.78
2022-09-15T05:19:12.754Z,94736.03
2022-09-15T05:21:43.151Z,94725.78
2022-09-15T05:24:11.890Z,94717.22
2022-09-15T05:26:41.794Z,94721.06
2022-09-15T05:29:10.471Z,94714.00
2022-09-15T05:31:39.332Z,94697.00
2022-09-15T05:34:08.291Z,94692.16
2022-09-15T05:36:37.136Z,94686.53
2022-09-15T05:39:07.355Z,94695.75
2022-09-15T05:41:36.105Z,94694.59
2022-09-15T05:44:04.904Z,94697.72
2022-09-15T05:46:33.822Z,94705.22
2022-09-15T05:49:02.683Z,94706.31
2022-09-15T05:51:31.490Z,94713.06
2022-09-15T05:54:00.320Z,94709.09
2022-09-15T05:56:31.424Z,94714.59
2022-09-15T05:59:00.733Z,94713.47
2022-09-15T06:01:31.233Z,94714.00
2022-09-15T06:04:00.154Z,94691.41
2022-09-15T06:06:29.002Z,94705.38
2022-09-15T06:08:59.555Z,94703.44
2022-09-15T06:11:33.772Z,94707.19
2022-09-15T06:14:03.371Z,94703.53
2022-09-15T06:16:34.686Z,94703.16
2022-09-15T06:19:04.106Z,94691.03
2022-09-15T06:21:34.172Z,94683.56
2022-09-15T06:24:07.224Z,94697.63
2022-09-15T06:26:37.582Z,94698.19
2022-09-15T06:29:06.931Z,94687.31
2022-09-15T06:31:36.108Z,94695.22
2022-09-15T06:34:05.614Z,94695.75
2022-09-15T06:36:34.681Z,94697.47
2022-09-15T06:39:03.610Z,94707.66
2022-09-15T06:41:58.477Z,94714.97
2022-09-15T06:44:22.768Z,94719.13
2022-09-15T06:46:51.844Z,94721.72
2022-09-15T06:49:21.746Z,94718.94
2022-09-15T06:51:50.521Z,94721.22
2022-09-15T06:54:19.555Z,94727.47
2022-09-15T06:56:48.316Z,94727.38
2022-09-15T06:59:18.232Z,94737.13
2022-09-15T07:01:48.544Z,94732.91
2022-09-15T07:04:17.417Z,94737.00
2022-09-15T07:06:46.131Z,94748.72
2022-09-15T07:09:15.342Z,94753.97
2022-09-15T07:11:44.283Z,94751.19
2022-09-15T07:14:13.676Z,94755.69
2022-09-15T07:16:42.888Z,94754.53
2022-09-15T07:19:13.350Z,94749.16
2022-09-15T07:21:42.346Z,94749.88
2022-09-15T07:24:12.912Z,94758.97
2022-09-15T07:26:42.073Z,94765.31
2022-09-15T07:29:10.891Z,94769.47
2022-09-15T07:31:40.879Z,94768.22
2022-09-15T07:34:09.943Z,94772.69
2022-09-15T07:36:40.418Z,94766.44
2022-09-15T07:39:09.439Z,94773.25
2022-09-15T07:41:38.464Z,94765.59
2022-09-15T07:44:08.772Z,94770.94
2022-09-15T07:46:37.749Z,94765.50
2022-09-15T07:49:08.440Z,94753.22
2022-09-15T07:51:37.255Z,94750.06
2022-09-15T07:54:07.715Z,94752.94
2022-09-15T07:56:37.152Z,94752.84
2022-09-15T07:59:06.155Z,94764.28
2022-09-15T08:01:35.192Z,94753.47
2022-09-15T08:04:04.557Z,94757.13
2022-09-15T08:06:33.984Z,94754.72
2022-09-15T08:09:03.544Z,94750.13
2022-09-15T08:11:34.201Z,94750.22
2022-09-15T08:14:03.814Z,94752.22
2022-09-15T08:16:33.106Z,94742.97
2022-09-15T08:19:02.116Z,94747.31
2022-09-15T08:21:31.068Z,94741.66
2022-09-15T08:24:01.512Z,94734.59
2022-09-15T08:26:31.604Z,94720.00
2022-09-15T08:29:02.032Z,94726.66
2022-09-15T08:31:31.108Z,94722.59
2022-09-15T08:34:04.106Z,94713.78
2022-09-15T08:36:32.931Z,94724.75
2022-09-15T08:39:02.281Z,94723.69
2022-09-15T08:41:34.433Z,94723.59
2022-09-15T08:44:12.312Z,94724.91
2022-09-15T08:46:47.400Z,94719.03
2022-09-15T08:49:41.219Z,94713.63
2022-09-15T08:52:21.571Z,94710.78
2022-09-15T08:54:55.242Z,94700.50
2022-09-15T08:57:26.242Z,94694.84
2022-09-15T08:59:59.357Z,94689.75
2022-09-15T09:02:51.460Z,94699.03
2022-09-15T09:05:34.549Z,94691.97
2022-09-15T09:08:26.646Z,94690.66
2022-09-15T09:11:00.357Z,94696.59
2022-09-15T09:13:38.480Z,94685.78
2022-09-15T09:16:27.663Z,94684.56
2022-09-15T09:19:23.409Z,94685.97
2022-09-15T09:21:57.982Z,94683.47
2022-09-15T09:24:36.925Z,94678.81
2022-09-15T09:27:06.581Z,94683.41
2022-09-15T09:29:40.844Z,94686.84
2022-09-15T09:32:21.697Z,94685.28
2022-09-15T09:35:00.257Z,94678.94
2022-09-15T09:37:30.057Z,94692.25
2022-09-15T09:39:59.022Z,94686.09
2022-09-15T09:42:32.359Z,94677.56
2022-09-15T09:45:01.196Z,94674.94
2022-09-15T09:47:33.587Z,94687.78
2022-09-15T09:50:02.449Z,94677.22
2022-09-15T09:52:37.851Z,94664.66
2022-09-15T09:55:22.628Z,94669.00
2022-09-15T09:57:51.788Z,94662.69
2022-09-15T10:00:34.638Z,94653.34
2022-09-15T10:03:15.716Z,94665.13
2022-09-15T10:05:45.393Z,94654.28
2022-09-15T10:08:19.559Z,94655.50
2022-09-15T10:10:52.810Z,94653.50
2022-09-15T10:13:22.812Z,94646.09
2022-09-15T10:15:58.791Z,94649.00
2022-09-15T10:18:34.194Z,94646.75
2022-09-15T10:21:05.121Z,94651.50
2022-09-15T10:23:35.122Z,94644.88
2022-09-15T10:26:32.317Z,94643.31
2022-09-15T10:29:16.128Z,94638.59
2022-09-15T10:31:46.596Z,94635.06
2022-09-15T10:34:31.820Z,94632.63
2022-09-15T10:37:09.614Z,94626.53
2022-09-15T10:39:51.144Z,94626.97
2022-09-15T10:42:29.068Z,94613.47
2022-09-15T10:45:18.656Z,94602.91
2022-09-15T10:48:03.070Z,94604.38
2022-09-15T10:50:43.534Z,94595.84
2022-09-15T10:53:20.274Z,94585.69
2022-09-15T10:55:59.656Z,94587.06
2022-09-15T10:58:45.871Z,94592.75
2022-09-15T11:01:48.154Z,94598.88
2022-09-15T11:04:45.651Z,94590.28
2022-09-15T11:07:26.016Z,94567.91
2022-09-15T11:10:02.220Z,94574.78
2022-09-15T11:12:46.421Z,94570.25
2022-09-15T11:15:40.052Z,94564.31
2022-09-15T11:18:21.378Z,94557.72
2022-09-15T11:21:03.978Z,94557.56
2022-09-15T11:23:35.583Z,94560.84
2022-09-15T11:26:08.781Z,94564.78
2022-09-15T11:28:43.299Z,94555.69
2022-09-15T11:31:18.444Z,94562.25
2022-09-15T11:33:54.139Z,94553.94
2022-09-15T11:36:30.030Z,94562.88
2022-09-15T11:39:05.626Z,94557.66
2022-09-15T11:41:39.403Z,94556.72
2022-09-15T11:44:22.979Z,94549.63
2022-09-15T11:47:04.341Z,94540.06
2022-09-15T11:49:40.275Z,94547.94
2022-09-15T11:52:23.826Z,94542.59
2022-09-15T11:55:00.985Z,94528.22
2022-09-15T11:57:36.259Z,94523.84
2022-09-15T12:00:11.800Z,94520.84
2022-09-15T12:02:45.363Z,94512.41
2022-09-15T12:05:19.526Z,94516.09
2022-09-15T12:07:54.834Z,94514.97
2022-09-15T12:10:30.378Z,94515.78
2022-09-15T12:13:01.507Z,94511.28
2022-09-15T12:15:31.147Z,94512.59
2022-09-15T12:18:27.659Z,94491.19
2022-09-15T12:21:09.683Z,94499.53
2022-09-15T12:23:42.815Z,94497.75
2022-09-15T12:26:18.658Z,94501.59
2022-09-15T12:28:56.346Z,94493.53
2022-09-15T12:31:37.255Z,94492.16
2022-09-15T12:34:28.330Z,94492.06
2022-09-15T12:37:08.319Z,94493.78
2022-09-15T12:39:42.434Z,94484.38
2022-09-15T12:42:22.342Z,94482.66
2022-09-15T12:44:54.583Z,94478.06
2022-09-15T12:47:25.692Z,94481.06
2022-09-15T12:49:57.933Z,94483.31
2022-09-15T12:52:26.958Z,94469.09
2022-09-15T12:54:58.207Z,94472.94
2022-09-15T12:57:32.396Z,94463.09
2022-09-15T13:00:30.327Z,94478.88
2022-09-15T13:02:59.667Z,94472.16
2022-09-15T13:05:54.074Z,94470.44
2022-09-15T13:08:46.364Z,94468.19
2022-09-15T13:11:18.759Z,94471.78
2022-09-15T13:13:52.647Z,94465.56
2022-09-15T13:16:28.747Z,94466.75
2022-09-15T13:19:08.841Z,94472.25
2022-09-15T13:21:41.241Z,94467.06
2022-09-15T13:24:15.763Z,94464.75
2022-09-15T13:26:49.163Z,94463.94
2022-09-15T13:29:20.767Z,94472.94
2022-09-15T13:31:56.102Z,94471.69
2022-09-15T13:35:15.631Z,94470.47
2022-09-15T13:38:24.973Z,94478.63
2022-09-15T13:41:25.621Z,94465.66
2022-09-15T13:44:37.196Z,94458.56
2022-09-15T13:47:24.710Z,94463.09
2022-09-15T13:50:13.419Z,94465.00
2022-09-15T13:52:57.764Z,94461.91
2022-09-15T13:55:28.350Z,94455.19
2022-09-15T14:00:58.077Z,94447.28
2022-09-15T14:03:37.401Z,94442.22
2022-09-15T14:06:14.022Z,94449.97
2022-09-15T14:08:45.375Z,94446.84
2022-09-15T14:11:17.385Z,94439.84
2022-09-15T14:13:49.406Z,94437.41
2022-09-15T14:16:25.127Z,94441.22
2022-09-15T14:18:57.809Z,94429.06
2022-09-15T14:21:27.237Z,94431.59
2022-09-15T14:23:58.789Z,94442.19
2022-09-15T14:26:30.641Z,94438.22
2022-09-15T14:29:01.073Z,94434.66
2022-09-15T14:31:33.497Z,94427.63
2022-09-15T14:34:04.874Z,94434.25
2022-09-15T14:36:34.896Z,94436.06
2022-09-15T14:39:21.723Z,94439.50
2022-09-15T14:41:51.824Z,94427.75
2022-09-15T14:47:21.622Z,94427.22
2022-09-15T14:50:07.595Z,94427.75
2022-09-15T14:52:40.496Z,94434.00
2022-09-15T14:55:15.632Z,94431.59
2022-09-15T14:57:49.517Z,94435.81
2022-09-15T15:00:22.951Z,94436.06
2022-09-15T15:03:02.111Z,94434.91
2022-09-15T15:05:40.668Z,94439.03
2022-09-15T15:08:17.603Z,94445.69
2022-09-15T15:10:46.619Z,94447.16
2022-09-15T15:13:17.938Z,94451.31
2022-09-15T15:15:47.902Z,94455.19
2022-09-15T15:18:41.424Z,94451.72
2022-09-15T15:21:39.645Z,94451.22
2022-09-15T15:24:19.417Z,94448.38
2022-09-15T15:26:49.549Z,94457.81
2022-09-15T15:29:39.165Z,94448.38
2022-09-15T15:32:13.252Z,94453.31
2022-09-15T15:34:49.891Z,94454.84
2022-09-15T15:37:26.972Z,94456.97
2022-09-15T15:39:57.201Z,94456.09
2022-09-15T15:42:28.817Z,94452.94
2022-09-15T15:45:04.071Z,94447.56
2022-09-15T15:47:36.769Z,94448.97
2022-09-15T15:50:14.195Z,94449.44
2022-09-15T15:52:45.150Z,94436.09
2022-09-15T15:55:18.550Z,94443.41
2022-09-15T15:57:50.377Z,94444.56
2022-09-15T16:00:23.194Z,94445.69
2022-09-15T16:02:53.402Z,94441.25
2022-09-15T16:05:26.725Z,94443.06
2022-09-15T16:08:00.793Z,94435.59
2022-09-15T16:10:32.520Z,94436.91
2022-09-15T16:13:01.481Z,94435.63
2022-09-15T16:15:30.336Z,94433.91
2022-09-15T16:17:59.070Z,94433.28
2022-09-15T16:20:30.840Z,94438.91
2022-09-15T16:23:01.807Z,94434.75
2022-09-15T16:25:37.020Z,94433.72
2022-09-15T16:28:06.004Z,94437.69
2022-09-15T16:30:35.319Z,94439.06
2022-09-15T16:33:04.269Z,94434.25
2022-09-15T16:35:39.547Z,94430.59
2022-09-15T16:38:10.005Z,94442.03
2022-09-15T16:40:39.142Z,94441.06
2022-09-15T16:43:14.064Z,94441.03
2022-09-15T16:45:42.875Z,94443.81
2022-09-15T16:48:12.311Z,94446.19
2022-09-15T16:50:50.137Z,94445.84
2022-09-15T16:53:26.849Z,94439.19
2022-09-15T16:55:56.606Z,94440.31
2022-09-15T16:58:25.644Z,94447.59
2022-09-15T17:00:54.579Z,94433.22
2022-09-15T17:03:25.762Z,94433.50
2022-09-15T17:05:56.012Z,94427.28
2022-09-15T17:08:29.594Z,94430.00
2022-09-15T17:10:59.509Z,94424.19
2022-09-15T17:13:30.678Z,94417.44
2022-09-15T17:16:00.725Z,94417.38
2022-09-15T17:18:30.085Z,94425.59
2022-09-15T17:20:59.205Z,94411.56
2022-09-15T17:23:32.900Z,94409.63
2022-09-15T17:26:03.568Z,94415.72
2022-09-15T17:28:33.985Z,94413.25
2022-09-15T17:31:04.447Z,94418.53
2022-09-15T17:33:34.443Z,94416.50
2022-09-15T17:36:03.992Z,94420.34
2022-09-15T17:38:34.331Z,94422.94
2022-09-15T17:41:03.238Z,94434.66
2022-09-15T17:43:33.216Z,94440.84
2022-09-15T17:46:02.130Z,94435.69
2022-09-15T17:48:31.071Z,94432.75
2022-09-15T17:51:01.680Z,94436.72
2022-09-15T17:53:31.199Z,94438.44
2022-09-15T17:56:01.594Z,94441.28
2022-09-15T17:58:31.574Z,94446.09
2022-09-15T18:01:01.073Z,94439.44
2022-09-15T18:03:33.489Z,94423.59
2022-09-15T18:06:05.378Z,94434.41
2022-09-15T18:08:36.059Z,94429.00
2022-09-15T18:11:08.548Z,94427.19
2022-09-15T18:13:38.198Z,94420.28
2022-09-15T18:16:12.429Z,94412.41
2022-09-15T18:18:41.733Z,94415.09
2022-09-15T18:21:19.433Z,94425.56
2022-09-15T18:23:48.497Z,94422.78
2022-09-15T18:26:23.953Z,94415.47
2022-09-15T18:28:56.635Z,94403.03
2022-09-15T18:31:25.564Z,94402.91
2022-09-15T18:33:54.789Z,94410.16
2022-09-15T18:36:23.960Z,94406.66
2022-09-15T18:38:52.917Z,94404.75
2022-09-15T18:41:23.443Z,94395.72
2022-09-15T18:43:52.416Z,94384.91
2022-09-15T18:46:21.579Z,94382.72
2022-09-15T18:48:50.763Z,94384.28
2022-09-15T18:51:24.421Z,94380.13
2022-09-15T18:53:58.729Z,94381.53
2022-09-15T18:56:29.308Z,94380.97
2022-09-15T18:58:58.199Z,94368.75
2022-09-15T19:01:27.164Z,94361.06
2022-09-15T19:03:56.267Z,94368.25
2022-09-15T19:06:25.418Z,94366.06
2022-09-15T19:08:54.298Z,94360.72
2022-09-15T19:11:23.127Z,94356.97
2022-09-15T19:13:55.123Z,94355.63
2022-09-15T19:16:34.507Z,94360.00
2022-09-15T19:19:13.055Z,94354.31
2022-09-15T19:21:41.870Z,94355.16
2022-09-15T19:24:10.595Z,94345.78
2022-09-15T19:26:39.487Z,94350.00
2022-09-15T19:29:10.876Z,94350.72
2022-09-15T19:31:41.936Z,94337.81
2022-09-15T19:34:11.711Z,94334.53
2022-09-15T19:36:40.514Z,94334.94
2022-09-15T19:39:09.398Z,94333.78
2022-09-15T19:41:38.315Z,94327.97
2022-09-15T19:44:10.586Z,94333.94
2022-09-15T19:46:41.268Z,94333.53
2022-09-15T19:49:10.274Z,94342.25
2022-09-15T19:51:39.073Z,94332.16
2022-09-15T19:54:08.020Z,94326.63
2022-09-15T19:56:37.166Z,94326.00
2022-09-15T19:59:07.753Z,94327.78
2022-09-15T20:01:36.619Z,94338.44
2022-09-15T20:04:06.967Z,94337.78
2022-09-15T20:06:37.562Z,94338.09
2022-09-15T20:09:07.251Z,94333.84
2022-09-15T20:11:36.974Z,94334.16
2022-09-15T20:14:07.201Z,94337.97
2022-09-15T20:16:36.441Z,94333.22
2022-09-15T20:19:06.768Z,94344.94
2022-09-15T20:21:52.529Z,94342.75
2022-09-15T20:24:22.454Z,94345.47
2022-09-15T20:26:51.669Z,94343.84
2022-09-15T20:29:21.084Z,94339.09
2022-09-15T20:31:50.130Z,94340.38
2022-09-15T20:34:20.334Z,94346.56
2022-09-15T20:36:49.331Z,94350.84
2022-09-15T20:39:22.181Z,94342.59
2022-09-15T20:41:51.107Z,94353.06
2022-09-15T20:44:19.803Z,94362.41
2022-09-15T20:46:48.732Z,94367.66
2022-09-15T20:49:17.587Z,94376.22
2022-09-15T20:51:47.667Z,94383.50
2022-09-15T20:54:16.313Z,94378.59
2022-09-15T20:56:45.099Z,94380.94
2022-09-15T20:59:15.330Z,94386.50
2022-09-15T21:01:44.817Z,94387.91
2022-09-15T21:04:13.876Z,94389.81
2022-09-15T21:06:42.824Z,94390.31
2022-09-15T21:09:13.037Z,94383.19
2022-09-15T21:11:43.371Z,94393.94
2022-09-15T21:14:14.490Z,94390.47
2022-09-15T21:16:43.891Z,94380.66
2022-09-15T21:19:13.225Z,94373.03
2022-09-15T21:21:41.933Z,94388.88
2022-09-15T21:24:12.317Z,94389.34
2022-09-15T21:26:56.622Z,94389.66
2022-09-15T21:29:25.796Z,94400.94
2022-09-15T21:31:55.873Z,94401.88
2022-09-15T21:34:25.859Z,94404.25
2022-09-15T21:36:54.658Z,94401.22
2022-09-15T21:39:25.056Z,94391.72
2022-09-15T21:41:54.420Z,94402.16
2022-09-15T21:44:23.096Z,94405.84
2022-09-15T21:46:52.824Z,94418.34
2022-09-15T21:49:21.855Z,94406.44
2022-09-15T21:51:50.593Z,94414.53
2022-09-15T21:54:19.336Z,94411.63
2022-09-15T21:56:50.664Z,94418.09
2022-09-15T21:59:19.543Z,94414.31
2022-09-15T22:01:48.755Z,94410.22
2022-09-15T22:04:17.732Z,94412.41
2022-09-15T22:06:47.450Z,94406.69
2022-09-15T22:09:17.985Z,94412.25
2022-09-15T22:11:46.827Z,94411.44
2022-09-15T22:14:17.433Z,94412.84
2022-09-15T22:16:46.159Z,94412.84
2022-09-15T22:19:15.012Z,94412.44
2022-09-15T22:21:43.873Z,94414.81
2022-09-15T22:24:14.346Z,94414.63
2022-09-15T22:26:43.855Z,94417.19
2022-09-15T22:29:13.221Z,94408.63
2022-09-15T22:31:43.281Z,94408.81
2022-09-15T22:34:12.276Z,94410.75
2022-09-15T22:36:40.946Z,94405.84
2022-09-15T22:39:09.740Z,94396.19
2022-09-15T22:41:40.224Z,94398.25
2022-09-15T22:44:18.043Z,94402.19
2022-09-15T22:46:49.811Z,94394.91
2022-09-15T22:49:18.549Z,94394.00
2022-09-15T22:51:47.308Z,94393.19
2022-09-15T22:54:16.255Z,94387.81
2022-09-15T22:56:45.076Z,94398.38
2022-09-15T22:59:14.101Z,94395.88
2022-09-15T23:01:42.809Z,94398.50
2022-09-15T23:04:12.997Z,94392.81
2022-09-15T23:06:41.816Z,94401.50
2022-09-15T23:09:12.493Z,94403.34
2022-09-15T23:11:41.438Z,94397.34
2022-09-15T23:14:15.072Z,94401.19
2022-09-15T23:16:44.512Z,94397.50
2022-09-15T23:19:15.693Z,94401.78
2022-09-15T23:21:44.434Z,94390.50
2022-09-15T23:24:14.215Z,94399.84
2022-09-15T23:26:42.984Z,94396.69
2022-09-15T23:29:11.677Z,94388.44
2022-09-15T23:31:40.526Z,94392.38
2022-09-15T23:34:09.324Z,94391.56
2022-09-15T23:36:39.510Z,94398.84
2022-09-15T23:39:08.410Z,94389.94
2022-09-15T23:41:39.107Z,94398.53
2022-09-15T23:44:10.990Z,94402.94
2022-09-15T23:46:39.786Z,94390.44
2022-09-15T23:49:08.705Z,94397.00
2022-09-15T23:51:39.155Z,94393.03
2022-09-15T23:54:08.164Z,94383.88
2022-09-15T23:56:36.995Z,94405.31
2022-09-15T23:59:05.797Z,94398.19
